Time;durP1;ratioP1;P1;durP2;ratioP2;P2;SDS_P1;SDS_P2;PMS_P1;PMS_P2;Temp;Humidity;BMP_temperature;BMP_pressure;BME280_temperature;BME280_humidity;BME280_pressure;Samples;Min_cycle;Max_cycle;Signal;HPM_P1;HPM_P2
2022/11/11 00:02:01;;;;;;;35.63;29.17;;;7.20;99.90;;;;;;5085236;28;20691;-52
2022/11/11 00:04:30;;;;;;;39.90;25.33;;;7.20;99.90;;;;;;5088185;28;20313;-51
2022/11/11 00:06:58;;;;;;;77.23;29.77;;;7.10;99.90;;;;;;5088170;28;20305;-52
2022/11/11 00:09:28;;;;;;;162.60;48.53;;;7.10;99.90;;;;;;5088108;28;20207;-52
2022/11/11 00:11:56;;;;;;;45.43;25.90;;;7.10;99.90;;;;;;5082722;28;20862;-51
2022/11/11 00:14:24;;;;;;;206.03;62.30;;;7.00;99.90;;;;;;5083839;28;20209;-51
2022/11/11 00:25:11;;;;;;;158.57;61.40;;;6.90;99.90;;;;;;5091851;28;20294;-52
2022/11/11 00:27:39;;;;;;;28.20;21.00;;;7.00;99.90;;;;;;5088650;28;20287;-51
2022/11/11 00:30:09;;;;;;;35.00;21.63;;;7.10;99.90;;;;;;5082333;28;20261;-51
2022/11/11 00:32:37;;;;;;;134.10;58.90;;;7.10;99.90;;;;;;5089607;28;20758;-51
2022/11/11 00:37:53;;;;;;;78.20;37.17;;;7.20;99.90;;;;;;5089269;28;20310;-52
2022/11/11 00:40:21;;;;;;;28.93;19.23;;;7.30;99.90;;;;;;5078145;28;20205;-51
2022/11/11 00:42:49;;;;;;;43.63;27.03;;;7.30;99.90;;;;;;5090773;28;20224;-52
2022/11/11 00:45:18;;;;;;;254.00;90.23;;;7.40;99.90;;;;;;5091646;28;20340;-51
2022/11/11 00:53:20;;;;;;;563.57;196.93;;;7.50;99.90;;;;;;5091061;28;20252;-51
2022/11/11 00:55:54;;;;;;;168.50;48.03;;;7.50;99.90;;;;;;5091071;28;20294;-52
2022/11/11 00:58:23;;;;;;;109.23;48.43;;;7.50;99.90;;;;;;5091337;28;20616;-52
2022/11/11 01:00:53;;;;;;;278.00;62.47;;;7.50;99.90;;;;;;5090724;28;20218;-51
2022/11/11 01:03:22;;;;;;;118.77;45.03;;;7.50;99.90;;;;;;5089978;28;20875;-52
2022/11/11 01:05:51;;;;;;;78.17;33.23;;;7.50;99.90;;;;;;5075506;28;20311;-51
2022/11/11 01:08:19;;;;;;;76.00;37.77;;;7.50;99.90;;;;;;5090954;28;20600;-51
2022/11/11 01:10:48;;;;;;;354.70;105.50;;;7.60;99.90;;;;;;5076339;28;20212;-52
2022/11/11 01:13:19;;;;;;;156.53;62.60;;;7.60;99.90;;;;;;5089971;28;20322;-52
2022/11/11 01:15:50;;;;;;;656.27;200.60;;;7.60;99.90;;;;;;5090631;28;20692;-51
2022/11/11 01:18:20;;;;;;;317.87;96.20;;;7.60;99.90;;;;;;5085315;28;20204;-51
2022/11/11 01:21:00;;;;;;;389.43;86.17;;;7.60;99.90;;;;;;5090699;28;20738;-51
2022/11/11 01:23:28;;;;;;;282.53;80.87;;;7.60;99.90;;;;;;5073596;28;20245;-51
2022/11/11 01:26:02;;;;;;;347.37;96.07;;;7.60;99.90;;;;;;5083291;28;20639;-52
2022/11/11 01:28:30;;;;;;;270.00;88.07;;;7.70;99.90;;;;;;5080212;28;20251;-51
2022/11/11 01:31:03;;;;;;;361.40;84.67;;;7.70;99.90;;;;;;5075632;28;20885;-52
2022/11/11 01:33:31;;;;;;;239.83;69.57;;;7.70;99.90;;;;;;5087075;28;20222;-51
2022/11/11 01:36:07;;;;;;;407.13;98.97;;;7.60;99.90;;;;;;5076100;28;21865;-52
2022/11/11 01:38:35;;;;;;;402.17;124.80;;;7.60;99.90;;;;;;5084550;28;20212;-52
2022/11/11 01:41:31;;;;;;;172.97;53.83;;;7.60;99.90;;;;;;5082708;28;20302;-52
2022/11/11 01:43:54;;;;;;;346.43;108.57;;;7.70;99.90;;;;;;5089653;28;20562;-52
2022/11/11 01:46:29;;;;;;;153.43;37.73;;;7.70;99.90;;;;;;5089746;28;20246;-51
2022/11/11 01:49:18;;;;;;;609.70;142.47;;;7.70;99.90;;;;;;5089857;28;20204;-52
2022/11/11 01:51:55;;;;;;;403.27;97.80;;;7.80;99.90;;;;;;5089490;28;20337;-51
2022/11/11 01:54:27;;;;;;;226.57;61.87;;;7.80;99.90;;;;;;5087968;28;20267;-51
2022/11/11 01:57:02;;;;;;;203.43;40.90;;;7.80;99.90;;;;;;5084017;28;20215;-52
2022/11/11 01:59:32;;;;;;;371.90;73.20;;;7.90;99.90;;;;;;5090212;28;20298;-52
2022/11/11 02:02:05;;;;;;;489.67;144.83;;;7.90;99.90;;;;;;5089231;28;20235;-52
2022/11/11 02:07:22;;;;;;;429.33;98.83;;;7.90;99.90;;;;;;5088611;28;20612;-52
2022/11/11 02:09:52;;;;;;;548.87;109.30;;;7.90;99.90;;;;;;5089581;28;20215;-52
2022/11/11 02:15:07;;;;;;;324.03;81.03;;;7.90;99.90;;;;;;5089581;28;20324;-52
2022/11/11 02:17:35;;;;;;;147.97;43.60;;;7.90;99.90;;;;;;5088210;28;20282;-52
2022/11/11 02:20:04;;;;;;;217.53;64.53;;;8.00;99.90;;;;;;5082169;28;20242;-51
2022/11/11 02:22:42;;;;;;;185.13;56.93;;;8.00;99.90;;;;;;5077528;28;20266;-53
2022/11/11 02:25:15;;;;;;;145.97;48.23;;;8.00;99.90;;;;;;5089264;28;20272;-52
2022/11/11 02:27:48;;;;;;;452.17;108.53;;;8.00;99.90;;;;;;5085820;28;20303;-52
2022/11/11 02:30:18;;;;;;;208.63;60.07;;;8.00;99.90;;;;;;5080968;28;20219;-51
2022/11/11 02:32:48;;;;;;;534.20;150.57;;;8.00;99.90;;;;;;5081269;28;20261;-52
2022/11/11 02:35:19;;;;;;;319.60;97.10;;;7.90;99.90;;;;;;5084226;28;20316;-51
2022/11/11 02:37:49;;;;;;;178.77;50.17;;;8.00;99.90;;;;;;5086642;28;20909;-52
2022/11/11 02:40:23;;;;;;;382.50;88.50;;;8.00;99.90;;;;;;5087714;28;20249;-50
2022/11/11 02:42:51;;;;;;;207.33;66.50;;;8.00;99.90;;;;;;5082146;28;20228;-52
2022/11/11 02:45:19;;;;;;;675.83;213.13;;;8.00;99.90;;;;;;5088154;28;20914;-52
2022/11/11 02:47:47;;;;;;;675.33;175.90;;;8.00;99.90;;;;;;5089589;28;20208;-52
2022/11/11 02:50:16;;;;;;;614.70;175.00;;;8.00;99.90;;;;;;5068341;28;20201;-51
2022/11/11 02:52:44;;;;;;;728.37;193.50;;;8.00;99.90;;;;;;5088386;28;20228;-51
2022/11/11 02:55:12;;;;;;;237.20;44.27;;;8.00;99.90;;;;;;5088810;28;20227;-51
2022/11/11 02:57:42;;;;;;;162.13;40.37;;;8.00;99.90;;;;;;5088757;28;20261;-51
2022/11/11 03:00:11;;;;;;;331.83;80.67;;;8.00;99.90;;;;;;5088978;28;20605;-52
2022/11/11 03:02:39;;;;;;;422.50;90.50;;;8.00;99.90;;;;;;5088322;28;20231;-52
2022/11/11 03:05:08;;;;;;;423.80;98.40;;;8.10;99.90;;;;;;5088378;28;20204;-51
2022/11/11 03:07:36;;;;;;;698.90;116.20;;;8.00;99.90;;;;;;5078936;28;20221;-51
2022/11/11 03:10:05;;;;;;;397.47;122.30;;;8.00;99.90;;;;;;5068375;28;20232;-52
2022/11/11 03:12:33;;;;;;;213.50;59.33;;;8.00;99.90;;;;;;5071398;28;20217;-52
2022/11/11 03:15:04;;;;;;;399.97;71.83;;;8.10;99.90;;;;;;5082984;28;20278;-52
2022/11/11 03:17:40;;;;;;;262.60;71.63;;;8.10;99.90;;;;;;5074859;28;20211;-51
2022/11/11 03:23:03;;;;;;;114.23;43.73;;;8.10;99.90;;;;;;5074611;28;20416;-53
2022/11/11 03:25:39;;;;;;;183.03;57.13;;;8.00;99.90;;;;;;5079465;28;20240;-52
2022/11/11 03:28:08;;;;;;;268.50;73.90;;;8.00;99.90;;;;;;5080839;28;20219;-52
2022/11/11 03:30:39;;;;;;;458.43;127.47;;;8.00;99.90;;;;;;5087638;28;20314;-51
2022/11/11 03:33:07;;;;;;;455.53;97.43;;;8.00;99.90;;;;;;5087876;28;20236;-51
2022/11/11 03:35:35;;;;;;;274.37;69.87;;;8.00;99.90;;;;;;5078341;28;20227;-52
2022/11/11 03:38:22;;;;;;;210.83;61.40;;;8.00;99.90;;;;;;5082595;28;20611;-52
2022/11/11 03:40:52;;;;;;;161.00;40.77;;;8.00;99.90;;;;;;5089084;28;20204;-52
2022/11/11 03:43:22;;;;;;;231.03;64.47;;;7.90;99.90;;;;;;5073068;28;20299;-52
2022/11/11 03:45:52;;;;;;;1272.27;225.23;;;7.90;99.90;;;;;;5088930;28;20196;-51
2022/11/11 03:48:21;;;;;;;250.20;60.03;;;7.90;99.90;;;;;;5065996;28;20300;-51
2022/11/11 03:50:49;;;;;;;419.07;124.13;;;7.80;99.90;;;;;;5086148;28;20208;-52
2022/11/11 03:53:19;;;;;;;399.13;111.27;;;7.80;99.90;;;;;;5092129;28;20235;-51
2022/11/11 03:55:49;;;;;;;299.87;95.70;;;7.70;99.90;;;;;;5093008;28;20224;-52
2022/11/11 03:58:18;;;;;;;340.33;84.87;;;7.70;99.90;;;;;;5092466;28;20315;-51
2022/11/11 04:00:46;;;;;;;637.87;129.20;;;7.70;99.90;;;;;;5092307;28;20218;-51
2022/11/11 04:11:34;;;;;;;185.83;47.73;;;7.80;99.90;;;;;;5091773;28;20227;-51
2022/11/11 04:16:51;;;;;;;198.03;58.00;;;7.90;99.90;;;;;;5081462;28;20284;-52
2022/11/11 04:22:07;;;;;;;442.80;109.43;;;7.90;99.90;;;;;;5080673;28;20308;-52
2022/11/11 04:27:21;;;;;;;1035.50;177.33;;;7.90;99.90;;;;;;5089993;28;20299;-52
2022/11/11 04:29:49;;;;;;;282.33;59.53;;;7.90;99.90;;;;;;5082201;28;20212;-51
2022/11/11 04:32:38;;;;;;;818.73;157.10;;;7.90;99.90;;;;;;5091295;28;20252;-52
2022/11/11 04:35:10;;;;;;;492.20;100.53;;;7.80;99.90;;;;;;5068003;28;20224;-52
2022/11/11 04:37:46;;;;;;;620.87;157.33;;;7.80;99.90;;;;;;5085632;28;20296;-52
2022/11/11 04:43:00;;;;;;;418.43;89.13;;;7.80;99.90;;;;;;5077600;28;20298;-52
2022/11/11 04:45:27;;;;;;;440.03;74.00;;;7.80;99.90;;;;;;5089988;28;20680;-51
2022/11/11 04:47:57;;;;;;;204.67;52.17;;;7.80;99.90;;;;;;5084866;28;20299;-51
2022/11/11 04:50:28;;;;;;;459.73;73.67;;;7.80;99.90;;;;;;5067572;28;20295;-51
2022/11/11 04:52:57;;;;;;;439.97;123.13;;;7.80;99.90;;;;;;5089369;28;20314;-51
2022/11/11 04:58:11;;;;;;;852.83;202.80;;;7.80;99.90;;;;;;5087719;28;20724;-52
2022/11/11 05:00:39;;;;;;;541.63;92.73;;;7.80;99.90;;;;;;5091020;28;20299;-52
2022/11/11 05:03:15;;;;;;;155.50;40.53;;;7.70;99.90;;;;;;5090215;28;20314;-52
2022/11/11 05:11:18;;;;;;;524.93;94.97;;;7.70;99.90;;;;;;5077247;28;20332;-52
2022/11/11 05:22:14;;;;;;;427.57;52.07;;;7.90;99.90;;;;;;5079629;28;20295;-51
2022/11/11 05:27:28;;;;;;;407.50;65.80;;;7.80;99.90;;;;;;5076779;28;20301;-52
2022/11/11 05:29:56;;;;;;;637.67;86.67;;;7.80;99.90;;;;;;5062040;28;20251;-52
2022/11/11 05:32:24;;;;;;;396.90;68.13;;;7.80;99.90;;;;;;5080465;28;20316;-51
2022/11/11 05:34:53;;;;;;;556.27;115.60;;;7.80;99.90;;;;;;5086224;28;20262;-52
2022/11/11 05:37:23;;;;;;;262.27;42.77;;;7.80;99.90;;;;;;5081318;28;20282;-52
2022/11/11 05:39:51;;;;;;;405.87;77.73;;;7.90;99.90;;;;;;5090290;28;20295;-52
2022/11/11 05:42:19;;;;;;;393.40;62.00;;;7.90;99.90;;;;;;5089056;28;20307;-52
2022/11/11 05:44:47;;;;;;;660.83;159.17;;;7.90;99.90;;;;;;5088089;28;20238;-51
2022/11/11 05:47:15;;;;;;;305.77;55.80;;;7.80;99.90;;;;;;5089529;28;20295;-51
2022/11/11 05:49:43;;;;;;;553.13;92.13;;;7.80;99.90;;;;;;5089599;28;20204;-52
2022/11/11 05:52:12;;;;;;;518.20;79.03;;;7.80;99.90;;;;;;5089797;28;20248;-52
2022/11/11 05:54:42;;;;;;;646.00;148.27;;;7.80;99.90;;;;;;5077621;28;20782;-51
2022/11/11 05:57:10;;;;;;;278.70;48.90;;;7.80;99.90;;;;;;5089379;28;20665;-52
2022/11/11 05:59:38;;;;;;;446.97;86.87;;;7.80;99.90;;;;;;5090282;28;20215;-51
2022/11/11 06:02:06;;;;;;;487.80;92.30;;;7.80;99.90;;;;;;5089647;28;20255;-51
2022/11/11 06:04:34;;;;;;;488.80;82.83;;;7.80;99.90;;;;;;5089581;28;20200;-52
2022/11/11 06:07:03;;;;;;;523.73;100.23;;;7.80;99.90;;;;;;5086076;28;20750;-51
2022/11/11 06:09:31;;;;;;;612.13;106.07;;;7.70;99.90;;;;;;5079254;28;20604;-51
2022/11/11 06:12:00;;;;;;;1125.43;134.97;;;7.80;99.90;;;;;;5081009;28;20311;-50
2022/11/11 06:14:28;;;;;;;1040.33;210.63;;;7.70;99.90;;;;;;5089352;28;20222;-52
2022/11/11 06:16:56;;;;;;;670.00;141.63;;;7.70;99.90;;;;;;5078494;28;20252;-52
2022/11/11 06:19:24;;;;;;;728.07;138.93;;;7.70;99.90;;;;;;5071866;28;20279;-51
2022/11/11 06:21:59;;;;;;;1453.10;217.40;;;7.70;99.90;;;;;;5080456;28;20227;-52
2022/11/11 06:24:28;;;;;;;699.90;131.00;;;7.70;99.90;;;;;;5086842;28;20200;-52
2022/11/11 06:26:56;;;;;;;578.73;90.30;;;7.60;99.90;;;;;;5077274;28;20240;-51
2022/11/11 06:29:25;;;;;;;1458.17;319.97;;;7.60;99.90;;;;;;5085380;28;20257;-51
2022/11/11 06:31:53;;;;;;;622.87;98.83;;;7.60;99.90;;;;;;5089008;28;20265;-51
2022/11/11 06:34:21;;;;;;;782.83;124.57;;;7.60;99.90;;;;;;5080898;28;20209;-52
2022/11/11 06:36:50;;;;;;;659.93;172.47;;;7.60;99.90;;;;;;5079216;28;20318;-52
2022/11/11 06:39:18;;;;;;;1051.43;192.33;;;7.50;99.90;;;;;;5088798;28;20212;-51
2022/11/11 06:41:46;;;;;;;850.97;167.23;;;7.50;99.90;;;;;;5087783;28;20795;-52
2022/11/11 06:44:14;;;;;;;403.27;79.77;;;7.50;99.90;;;;;;5084640;28;20276;-51
2022/11/11 06:46:43;;;;;;;577.20;146.13;;;7.50;99.90;;;;;;5088800;28;20235;-52
2022/11/11 06:49:11;;;;;;;1999.90;435.67;;;7.50;99.90;;;;;;5088852;28;20287;-51
2022/11/11 06:51:39;;;;;;;649.43;138.67;;;7.60;99.90;;;;;;5089141;28;20780;-51
2022/11/11 06:54:08;;;;;;;603.67;82.70;;;7.60;99.90;;;;;;5088966;28;20295;-50
2022/11/11 06:56:36;;;;;;;514.13;120.57;;;7.60;99.90;;;;;;5073884;28;20291;-52
2022/11/11 06:59:04;;;;;;;264.17;52.77;;;7.60;99.90;;;;;;5088899;28;20299;-51
2022/11/11 07:01:32;;;;;;;658.80;138.53;;;7.70;99.90;;;;;;5089139;28;20267;-50
2022/11/11 07:04:01;;;;;;;1999.90;393.77;;;7.70;99.90;;;;;;5084814;28;20223;-52
2022/11/11 07:06:29;;;;;;;1233.63;182.93;;;7.60;99.90;;;;;;5088924;28;20272;-56
2022/11/11 07:08:57;;;;;;;1015.47;229.83;;;7.60;99.90;;;;;;5071704;28;20653;-51
2022/11/11 07:11:25;;;;;;;769.37;120.97;;;7.60;99.90;;;;;;5088992;28;20302;-51
2022/11/11 07:13:53;;;;;;;958.43;162.43;;;7.60;99.90;;;;;;5087815;28;20295;-50
2022/11/11 07:16:21;;;;;;;1134.73;162.47;;;7.60;99.90;;;;;;5082680;28;20319;-52
2022/11/11 07:18:49;;;;;;;1056.80;160.43;;;7.60;99.90;;;;;;5081420;28;20300;-51
2022/11/11 07:21:19;;;;;;;927.67;232.03;;;7.50;99.90;;;;;;5070507;28;20744;-52
2022/11/11 07:23:47;;;;;;;1328.13;222.20;;;7.50;99.90;;;;;;5082597;28;20246;-51
2022/11/11 07:26:15;;;;;;;1671.87;315.00;;;7.60;99.90;;;;;;5092544;28;20595;-51
2022/11/11 07:28:43;;;;;;;1333.20;220.93;;;7.50;99.90;;;;;;5086236;28;20295;-51
2022/11/11 07:31:11;;;;;;;611.23;104.70;;;7.50;99.90;;;;;;5089274;28;20638;-51
2022/11/11 07:33:39;;;;;;;1502.47;215.87;;;7.50;99.90;;;;;;5084259;28;20305;-52
2022/11/11 07:36:08;;;;;;;1412.33;225.30;;;7.60;99.90;;;;;;5077447;28;20815;-52
2022/11/11 07:38:38;;;;;;;394.57;112.57;;;7.70;99.90;;;;;;5074743;28;20208;-52
2022/11/11 07:41:06;;;;;;;1168.77;202.53;;;7.70;99.90;;;;;;5070380;28;20293;-51
2022/11/11 07:43:34;;;;;;;418.97;63.10;;;7.70;99.90;;;;;;5072247;28;20586;-52
2022/11/11 07:46:02;;;;;;;1122.93;206.67;;;7.70;99.90;;;;;;5072497;28;20609;-52
2022/11/11 07:48:30;;;;;;;1914.00;311.53;;;7.70;99.90;;;;;;5072582;28;20205;-51
2022/11/11 07:50:58;;;;;;;242.10;72.30;;;7.80;99.90;;;;;;5070977;28;20288;-51
2022/11/11 07:53:27;;;;;;;1561.97;275.60;;;7.70;99.90;;;;;;5070683;28;20301;-50
2022/11/11 07:55:56;;;;;;;610.90;116.07;;;7.80;99.90;;;;;;5070086;28;20737;-52
2022/11/11 07:58:25;;;;;;;804.13;142.83;;;7.80;99.90;;;;;;5063902;28;20293;-51
2022/11/11 08:00:53;;;;;;;304.83;75.43;;;7.80;99.90;;;;;;5069261;28;20205;-51
2022/11/11 08:03:21;;;;;;;795.00;199.03;;;7.90;99.90;;;;;;5066051;28;20209;-52
2022/11/11 08:05:50;;;;;;;390.50;74.30;;;7.90;99.90;;;;;;5071616;28;20221;-52
2022/11/11 08:08:23;;;;;;;1019.97;255.17;;;8.00;99.90;;;;;;5060321;28;20280;-52
2022/11/11 08:10:55;;;;;;;977.00;248.23;;;7.90;99.90;;;;;;5064852;28;20251;-51
2022/11/11 08:13:41;;;;;;;955.20;227.60;;;8.00;99.90;;;;;;5058079;28;20718;-53
2022/11/11 08:16:09;;;;;;;331.30;90.00;;;8.00;99.90;;;;;;5071466;28;20244;-51
2022/11/11 08:18:37;;;;;;;843.27;240.90;;;8.00;99.90;;;;;;5071294;28;20312;-52
2022/11/11 08:21:06;;;;;;;1002.03;261.60;;;8.00;99.90;;;;;;5071097;28;20296;-52
2022/11/11 08:23:36;;;;;;;493.07;108.43;;;8.10;99.90;;;;;;5071196;28;20204;-52
2022/11/11 08:26:25;;;;;;;412.47;94.60;;;8.10;99.90;;;;;;5070711;28;20205;-52
2022/11/11 08:28:57;;;;;;;130.53;35.60;;;8.10;99.90;;;;;;5071468;28;20637;-52
2022/11/11 08:31:25;;;;;;;325.17;89.60;;;8.20;99.90;;;;;;5068020;28;20257;-52
2022/11/11 08:33:53;;;;;;;950.23;207.53;;;8.20;99.90;;;;;;5070713;28;20684;-52
2022/11/11 08:36:23;;;;;;;601.30;147.10;;;8.20;99.90;;;;;;5053310;28;20237;-52
2022/11/11 08:38:52;;;;;;;1164.63;343.93;;;8.30;99.90;;;;;;5070280;28;20290;-50
2022/11/11 08:41:22;;;;;;;429.10;106.93;;;8.40;99.90;;;;;;5071091;28;20306;-52
2022/11/11 08:43:54;;;;;;;744.83;159.63;;;8.40;99.90;;;;;;5066787;28;20297;-52
2022/11/11 08:46:23;;;;;;;1713.03;456.90;;;8.40;99.90;;;;;;5064034;28;20233;-51
2022/11/11 08:48:51;;;;;;;929.47;200.43;;;8.30;99.90;;;;;;5070621;28;20205;-51
2022/11/11 08:51:19;;;;;;;1128.07;258.90;;;8.40;99.90;;;;;;5071485;28;20339;-50
2022/11/11 08:53:47;;;;;;;950.27;164.10;;;8.40;99.90;;;;;;5070768;28;20291;-52
2022/11/11 08:56:15;;;;;;;753.33;193.87;;;8.40;99.90;;;;;;5071251;28;20300;-51
2022/11/11 08:58:44;;;;;;;738.73;196.83;;;8.40;99.90;;;;;;5070252;28;20205;-52
2022/11/11 09:01:14;;;;;;;1753.60;401.30;;;8.50;99.90;;;;;;5071245;28;20237;-50
2022/11/11 09:03:44;;;;;;;632.37;163.67;;;8.60;99.90;;;;;;5070305;28;20266;-52
2022/11/11 09:06:13;;;;;;;550.87;132.30;;;8.60;99.90;;;;;;5059269;28;20270;-52
2022/11/11 09:08:43;;;;;;;841.60;231.67;;;8.70;99.90;;;;;;5068827;28;20648;-52
2022/11/11 09:11:12;;;;;;;228.00;69.50;;;8.80;99.90;;;;;;5065486;28;20404;-51
2022/11/11 09:13:40;;;;;;;519.87;126.10;;;9.00;99.90;;;;;;5069250;28;20237;-52
2022/11/11 09:16:09;;;;;;;806.17;190.83;;;9.10;99.90;;;;;;5070662;28;20215;-52
2022/11/11 09:18:39;;;;;;;1545.73;435.10;;;9.10;99.90;;;;;;5064323;28;20607;-52
2022/11/11 09:21:07;;;;;;;904.10;239.67;;;9.00;99.90;;;;;;5069908;28;20287;-52
2022/11/11 09:23:35;;;;;;;698.37;163.63;;;9.10;99.90;;;;;;5069887;28;20228;-51
2022/11/11 09:26:04;;;;;;;1173.27;250.83;;;9.10;99.90;;;;;;5069758;28;20578;-51
2022/11/11 09:28:33;;;;;;;710.60;141.87;;;9.30;99.90;;;;;;5070546;28;20258;-52
2022/11/11 09:31:02;;;;;;;1010.87;203.47;;;9.40;99.90;;;;;;5066235;28;20294;-52
2022/11/11 09:33:53;;;;;;;866.43;244.60;;;9.40;99.90;;;;;;5069015;28;20219;-52
2022/11/11 09:36:21;;;;;;;1613.13;380.73;;;9.40;99.90;;;;;;5069698;28;20204;-52
2022/11/11 09:38:49;;;;;;;1683.17;385.27;;;9.50;99.90;;;;;;5069715;28;20320;-52
2022/11/11 09:41:24;;;;;;;820.70;216.80;;;9.50;99.90;;;;;;5069416;28;22023;-52
2022/11/11 09:43:57;;;;;;;1216.77;232.97;;;9.40;99.90;;;;;;5058088;28;20634;-52
2022/11/11 09:46:48;;;;;;;749.40;191.90;;;9.30;99.90;;;;;;5069164;28;20288;-51
2022/11/11 09:49:33;;;;;;;698.90;227.53;;;9.20;99.90;;;;;;5069499;28;20280;-52
2022/11/11 09:52:06;;;;;;;1420.60;332.90;;;9.20;99.90;;;;;;5056794;28;20635;-51
2022/11/11 09:54:40;;;;;;;1999.90;516.20;;;9.30;99.90;;;;;;5069917;28;20197;-51
2022/11/11 09:57:17;;;;;;;1372.47;318.27;;;9.30;99.90;;;;;;5069370;28;20260;-51
2022/11/11 09:59:48;;;;;;;1970.53;354.63;;;9.50;99.90;;;;;;5061262;28;20308;-51
2022/11/11 10:02:26;;;;;;;1200.33;227.80;;;9.60;99.90;;;;;;5064817;28;20338;-52
2022/11/11 10:05:02;;;;;;;1404.53;316.70;;;9.60;99.90;;;;;;5069498;28;20236;-51
2022/11/11 10:07:36;;;;;;;366.07;80.97;;;9.50;99.90;;;;;;5069089;28;20251;-52
2022/11/11 10:10:12;;;;;;;1501.40;253.67;;;9.60;99.90;;;;;;5069573;28;20282;-51
2022/11/11 10:12:49;;;;;;;958.63;271.40;;;9.60;99.90;;;;;;5068817;28;20260;-51
2022/11/11 10:15:20;;;;;;;1080.40;240.43;;;9.60;99.90;;;;;;5069439;28;20232;-52
2022/11/11 10:18:05;;;;;;;1999.90;477.03;;;9.60;99.90;;;;;;5069170;28;20351;-50
2022/11/11 10:20:40;;;;;;;1998.00;683.23;;;9.60;99.90;;;;;;5056411;28;20375;-51
2022/11/11 10:23:14;;;;;;;1890.97;475.70;;;9.70;99.90;;;;;;5068270;28;20315;-52
2022/11/11 10:25:51;;;;;;;1106.20;281.13;;;9.70;99.90;;;;;;5068674;28;20233;-51
2022/11/11 10:28:21;;;;;;;1542.30;355.37;;;9.80;99.90;;;;;;5068874;28;20235;-52
2022/11/11 10:30:52;;;;;;;1620.40;410.30;;;9.80;99.90;;;;;;5069302;28;20618;-51
2022/11/11 10:33:24;;;;;;;1167.77;257.83;;;9.80;99.90;;;;;;5067841;28;20664;-51
2022/11/11 10:35:54;;;;;;;1146.00;285.63;;;9.80;99.90;;;;;;5068006;28;20255;-52
2022/11/11 10:38:32;;;;;;;1472.67;416.67;;;9.90;99.90;;;;;;5066612;28;20311;-52
2022/11/11 10:41:09;;;;;;;1658.20;386.67;;;10.00;99.90;;;;;;5058373;28;20287;-51
2022/11/11 10:43:38;;;;;;;1977.97;436.47;;;10.20;99.90;;;;;;5068519;28;20212;-51
2022/11/11 10:46:15;;;;;;;1577.93;373.73;;;10.30;99.90;;;;;;5068699;28;20240;-51
2022/11/11 10:48:53;;;;;;;1999.90;579.03;;;10.20;99.90;;;;;;5067775;28;20568;-51
2022/11/11 10:51:25;;;;;;;1703.17;449.90;;;10.30;99.90;;;;;;5069100;28;20232;-51
2022/11/11 10:54:01;;;;;;;1491.23;306.93;;;10.30;99.90;;;;;;5068189;28;20292;-51
2022/11/11 10:56:37;;;;;;;1846.80;343.33;;;10.30;99.90;;;;;;5069256;28;20295;-52
2022/11/11 10:59:12;;;;;;;1300.03;294.93;;;10.20;99.90;;;;;;5054048;28;20262;-52
2022/11/11 11:01:46;;;;;;;1166.43;340.27;;;10.30;99.90;;;;;;5069279;28;20252;-52
2022/11/11 11:04:20;;;;;;;1151.93;326.80;;;10.30;99.90;;;;;;5067914;28;20212;-51
2022/11/11 11:06:52;;;;;;;1395.03;299.13;;;10.30;99.90;;;;;;5068187;28;20703;-51
2022/11/11 11:09:27;;;;;;;968.20;231.63;;;10.40;99.90;;;;;;5068056;28;20242;-52
2022/11/11 11:11:59;;;;;;;1431.43;300.30;;;10.40;99.90;;;;;;5052448;28;20253;-51
2022/11/11 11:14:33;;;;;;;1445.27;379.73;;;10.40;99.90;;;;;;5068064;28;20232;-51
2022/11/11 11:17:08;;;;;;;385.43;90.13;;;10.40;99.90;;;;;;5068475;28;20207;-51
2022/11/11 11:19:36;;;;;;;1211.43;295.90;;;10.40;99.90;;;;;;5068486;28;20319;-52
2022/11/11 11:22:06;;;;;;;898.33;204.87;;;10.30;99.90;;;;;;5067528;28;20274;-51
2022/11/11 11:24:36;;;;;;;1424.87;321.03;;;10.30;99.90;;;;;;5068417;28;20204;-51
2022/11/11 11:27:10;;;;;;;1207.13;299.37;;;10.30;99.90;;;;;;5067930;28;20253;-52
2022/11/11 11:29:41;;;;;;;1507.60;291.60;;;10.30;99.90;;;;;;5068589;28;20297;-52
2022/11/11 11:32:18;;;;;;;1897.13;351.33;;;10.40;99.90;;;;;;5056720;28;20232;-51
2022/11/11 11:34:49;;;;;;;1681.53;468.23;;;10.30;99.90;;;;;;5065086;28;20351;-52
2022/11/11 11:37:20;;;;;;;1999.90;582.70;;;10.30;99.90;;;;;;5059145;28;20908;-51
2022/11/11 11:39:58;;;;;;;1269.30;280.97;;;10.30;99.90;;;;;;5068662;28;20228;-51
2022/11/11 11:42:32;;;;;;;1232.30;232.47;;;10.40;99.90;;;;;;5066823;28;20793;-52
2022/11/11 11:45:25;;;;;;;1093.20;258.20;;;10.30;99.90;;;;;;5068011;28;20287;-51
2022/11/11 11:48:09;;;;;;;1148.10;245.33;;;10.30;99.90;;;;;;5065876;28;20227;-51
2022/11/11 11:51:09;;;;;;;1668.57;473.20;;;10.30;99.90;;;;;;5065613;28;20208;-52
2022/11/11 11:53:53;;;;;;;1281.07;313.03;;;10.40;99.90;;;;;;5067641;28;20212;-51
2022/11/11 11:56:31;;;;;;;1716.63;302.00;;;10.40;99.90;;;;;;5067839;28;20287;-52
2022/11/11 11:59:05;;;;;;;598.53;144.83;;;10.50;99.90;;;;;;5067830;28;20488;-51
2022/11/11 12:01:41;;;;;;;1571.67;324.10;;;10.50;99.90;;;;;;5068405;28;20315;-51
2022/11/11 12:04:34;;;;;;;1518.90;249.00;;;10.60;99.90;;;;;;5068055;28;20443;-50
2022/11/11 12:07:17;;;;;;;923.90;267.40;;;10.60;99.90;;;;;;5067733;28;20217;-51
2022/11/11 12:10:02;;;;;;;1999.90;521.57;;;10.70;99.90;;;;;;5068896;28;20749;-51
2022/11/11 12:12:39;;;;;;;1999.90;578.03;;;10.60;99.90;;;;;;5068645;28;20232;-51
2022/11/11 12:15:24;;;;;;;524.57;142.30;;;10.70;99.90;;;;;;5072168;28;20295;-52
2022/11/11 12:18:03;;;;;;;1270.03;314.23;;;10.60;99.90;;;;;;5062353;28;20288;-52
2022/11/11 12:20:39;;;;;;;1365.47;295.77;;;10.70;99.90;;;;;;5071469;28;20283;-51
2022/11/11 12:23:24;;;;;;;1744.57;437.13;;;10.60;99.90;;;;;;5069194;28;20307;-51
2022/11/11 12:26:03;;;;;;;1999.90;574.47;;;10.70;99.90;;;;;;5062196;28;20309;-52
2022/11/11 12:28:48;;;;;;;1686.67;358.07;;;10.70;99.90;;;;;;5071145;28;20196;-52
2022/11/11 12:31:28;;;;;;;1301.07;276.23;;;10.70;99.90;;;;;;5071250;28;20288;-51
2022/11/11 12:34:18;;;;;;;1968.30;374.97;;;10.70;99.90;;;;;;5070647;28;20207;-52
2022/11/11 12:36:54;;;;;;;1792.70;399.63;;;10.70;99.90;;;;;;5068337;28;20295;-51
2022/11/11 12:39:39;;;;;;;1614.03;391.30;;;10.70;99.90;;;;;;5071756;28;20244;-52
2022/11/11 12:42:16;;;;;;;1075.50;280.17;;;10.70;99.90;;;;;;5070503;28;20346;-51
2022/11/11 12:44:59;;;;;;;1166.30;238.20;;;10.70;99.90;;;;;;5071162;28;20287;-52
2022/11/11 12:47:37;;;;;;;1438.60;349.33;;;10.80;99.90;;;;;;5066814;28;20232;-52
2022/11/11 12:50:18;;;;;;;1765.07;368.03;;;10.80;99.90;;;;;;5070238;28;20200;-50
2022/11/11 12:53:04;;;;;;;1944.47;378.73;;;10.70;99.90;;;;;;5070531;28;20725;-52
2022/11/11 12:55:40;;;;;;;1982.50;375.23;;;10.70;99.90;;;;;;5071673;28;20300;-51
2022/11/11 12:58:24;;;;;;;1763.03;371.57;;;10.70;99.90;;;;;;5070966;28;20204;-51
2022/11/11 13:01:08;;;;;;;1665.80;355.70;;;10.70;99.90;;;;;;5071213;28;20205;-51
2022/11/11 13:03:50;;;;;;;1904.20;412.47;;;10.70;99.90;;;;;;5070239;28;20278;-52
2022/11/11 13:06:34;;;;;;;1999.90;443.13;;;10.70;99.90;;;;;;5056988;28;20217;-52
2022/11/11 13:09:32;;;;;;;1999.90;634.67;;;10.80;99.90;;;;;;5066676;28;20429;-51
2022/11/11 13:12:07;;;;;;;1999.90;685.17;;;10.70;99.90;;;;;;5056840;28;20645;-52
2022/11/11 13:14:50;;;;;;;1999.90;522.77;;;10.70;99.90;;;;;;5057475;28;20296;-52
2022/11/11 13:17:18;;;;;;;1999.90;437.87;;;10.70;99.90;;;;;;5064784;28;20207;-52
2022/11/11 13:19:51;;;;;;;1677.63;303.53;;;10.70;99.90;;;;;;5069863;28;20212;-52
2022/11/11 13:22:23;;;;;;;1303.50;288.47;;;10.70;99.90;;;;;;5068783;28;20588;-53
2022/11/11 13:24:51;;;;;;;641.27;169.03;;;10.70;99.90;;;;;;5070866;28;20304;-52
2022/11/11 13:27:33;;;;;;;1999.90;539.40;;;10.70;99.90;;;;;;5070107;28;20274;-52
2022/11/11 13:30:34;;;;;;;1890.90;408.83;;;10.70;99.90;;;;;;5060926;28;20211;-51
2022/11/11 13:33:07;;;;;;;1999.90;424.77;;;10.70;99.90;;;;;;5063821;28;20258;-51
2022/11/11 13:35:39;;;;;;;1999.90;409.97;;;10.70;99.90;;;;;;5068519;28;20308;-51
2022/11/11 13:38:13;;;;;;;1993.10;420.73;;;10.70;99.90;;;;;;5060597;28;20205;-52
2022/11/11 13:40:45;;;;;;;1999.90;522.73;;;10.70;99.90;;;;;;5069929;28;20312;-52
2022/11/11 13:43:19;;;;;;;1536.73;364.73;;;10.70;99.90;;;;;;5069362;28;20319;-51
2022/11/11 13:45:52;;;;;;;1999.90;516.60;;;10.70;99.90;;;;;;5070046;28;20204;-52